sensor_id;sensor_type;location;lat;lon;timestamp;P1;durP1;ratioP1;P2;durP2;ratioP2
50429;SDS011;36359;41.556;-8.418;2023-10-19T00:00:39;27.40;;;4.88;;
50429;SDS011;36359;41.556;-8.418;2023-10-19T00:03:15;23.13;;;4.30;;
50429;SDS011;36359;41.556;-8.418;2023-10-19T00:05:42;18.02;;;3.17;;
50429;SDS011;36359;41.556;-8.418;2023-10-19T00:08:10;26.08;;;4.88;;
50429;SDS011;36359;41.556;-8.418;2023-10-19T00:10:50;17.83;;;2.78;;
50429;SDS011;36359;41.556;-8.418;2023-10-19T00:13:32;13.15;;;3.00;;
50429;SDS011;36359;41.556;-8.418;2023-10-19T00:16:01;16.73;;;3.42;;
50429;SDS011;36359;41.556;-8.418;2023-10-19T00:18:36;21.85;;;3.67;;
50429;SDS011;36359;41.556;-8.418;2023-10-19T00:21:07;22.00;;;4.25;;
50429;SDS011;36359;41.556;-8.418;2023-10-19T00:23:53;26.50;;;4.30;;
50429;SDS011;36359;41.556;-8.418;2023-10-19T00:26:25;30.33;;;5.40;;
50429;SDS011;36359;41.556;-8.418;2023-10-19T00:28:56;35.58;;;6.30;;
50429;SDS011;36359;41.556;-8.418;2023-10-19T00:31:25;23.10;;;4.82;;
50429;SDS011;36359;41.556;-8.418;2023-10-19T00:33:59;20.92;;;3.95;;
50429;SDS011;36359;41.556;-8.418;2023-10-19T00:36:26;19.83;;;4.20;;
50429;SDS011;36359;41.556;-8.418;2023-10-19T00:38:51;38.50;;;6.63;;
50429;SDS011;36359;41.556;-8.418;2023-10-19T00:41:23;19.20;;;3.85;;
50429;SDS011;36359;41.556;-8.418;2023-10-19T00:43:54;24.80;;;4.70;;
50429;SDS011;36359;41.556;-8.418;2023-10-19T00:46:37;23.52;;;5.00;;
50429;SDS011;36359;41.556;-8.418;2023-10-19T00:49:09;21.98;;;3.25;;
50429;SDS011;36359;41.556;-8.418;2023-10-19T00:51:38;29.05;;;4.72;;
50429;SDS011;36359;41.556;-8.418;2023-10-19T00:54:14;29.13;;;6.03;;
50429;SDS011;36359;41.556;-8.418;2023-10-19T00:56:47;19.27;;;4.35;;
50429;SDS011;36359;41.556;-8.418;2023-10-19T00:59:14;28.90;;;5.40;;
50429;SDS011;36359;41.556;-8.418;2023-10-19T01:01:49;17.75;;;3.42;;
50429;SDS011;36359;41.556;-8.418;2023-10-19T01:04:19;34.63;;;5.90;;
50429;SDS011;36359;41.556;-8.418;2023-10-19T01:06:48;32.28;;;6.50;;
50429;SDS011;36359;41.556;-8.418;2023-10-19T01:09:34;23.95;;;4.68;;
50429;SDS011;36359;41.556;-8.418;2023-10-19T01:12:01;32.70;;;5.25;;
50429;SDS011;36359;41.556;-8.418;2023-10-19T01:15:02;20.40;;;4.35;;
50429;SDS011;36359;41.556;-8.418;2023-10-19T01:17:38;24.83;;;4.55;;
50429;SDS011;36359;41.556;-8.418;2023-10-19T01:20:06;22.42;;;4.63;;
50429;SDS011;36359;41.556;-8.418;2023-10-19T01:22:57;19.08;;;4.30;;
50429;SDS011;36359;41.556;-8.418;2023-10-19T01:31:19;19.40;;;3.65;;
50429;SDS011;36359;41.556;-8.418;2023-10-19T01:33:56;27.95;;;4.88;;
50429;SDS011;36359;41.556;-8.418;2023-10-19T01:36:23;31.85;;;4.65;;
50429;SDS011;36359;41.556;-8.418;2023-10-19T01:38:50;26.42;;;4.53;;
50429;SDS011;36359;41.556;-8.418;2023-10-19T01:41:19;18.27;;;3.55;;
50429;SDS011;36359;41.556;-8.418;2023-10-19T01:43:46;23.33;;;4.18;;
50429;SDS011;36359;41.556;-8.418;2023-10-19T01:46:15;19.27;;;3.88;;
50429;SDS011;36359;41.556;-8.418;2023-10-19T01:48:47;26.05;;;4.53;;
50429;SDS011;36359;41.556;-8.418;2023-10-19T01:51:23;28.75;;;5.20;;
50429;SDS011;36359;41.556;-8.418;2023-10-19T01:53:52;25.50;;;4.80;;
50429;SDS011;36359;41.556;-8.418;2023-10-19T01:56:18;19.70;;;4.10;;
50429;SDS011;36359;41.556;-8.418;2023-10-19T01:58:44;22.73;;;4.95;;
50429;SDS011;36359;41.556;-8.418;2023-10-19T02:01:17;17.73;;;3.63;;
50429;SDS011;36359;41.556;-8.418;2023-10-19T02:03:47;23.05;;;3.83;;
50429;SDS011;36359;41.556;-8.418;2023-10-19T02:06:20;22.67;;;3.95;;
50429;SDS011;36359;41.556;-8.418;2023-10-19T02:09:00;28.65;;;4.75;;
50429;SDS011;36359;41.556;-8.418;2023-10-19T02:11:54;29.40;;;5.57;;
50429;SDS011;36359;41.556;-8.418;2023-10-19T02:14:23;31.23;;;5.93;;
50429;SDS011;36359;41.556;-8.418;2023-10-19T02:16:51;20.50;;;3.70;;
50429;SDS011;36359;41.556;-8.418;2023-10-19T02:19:19;24.20;;;4.50;;
50429;SDS011;36359;41.556;-8.418;2023-10-19T02:21:47;15.20;;;3.20;;
50429;SDS011;36359;41.556;-8.418;2023-10-19T02:24:13;34.88;;;5.85;;
50429;SDS011;36359;41.556;-8.418;2023-10-19T02:26:41;19.08;;;4.28;;
50429;SDS011;36359;41.556;-8.418;2023-10-19T02:29:08;27.90;;;5.65;;
50429;SDS011;36359;41.556;-8.418;2023-10-19T02:31:38;21.25;;;4.78;;
50429;SDS011;36359;41.556;-8.418;2023-10-19T02:34:07;28.17;;;5.75;;
50429;SDS011;36359;41.556;-8.418;2023-10-19T02:36:36;30.27;;;6.20;;
50429;SDS011;36359;41.556;-8.418;2023-10-19T02:39:07;26.55;;;5.35;;
50429;SDS011;36359;41.556;-8.418;2023-10-19T02:41:34;22.80;;;4.60;;
50429;SDS011;36359;41.556;-8.418;2023-10-19T02:44:09;29.83;;;6.68;;
50429;SDS011;36359;41.556;-8.418;2023-10-19T02:46:42;31.00;;;6.25;;
50429;SDS011;36359;41.556;-8.418;2023-10-19T02:49:09;37.32;;;7.10;;
50429;SDS011;36359;41.556;-8.418;2023-10-19T02:51:41;33.28;;;6.25;;
50429;SDS011;36359;41.556;-8.418;2023-10-19T02:54:11;26.73;;;5.72;;
50429;SDS011;36359;41.556;-8.418;2023-10-19T02:56:58;28.70;;;6.38;;
50429;SDS011;36359;41.556;-8.418;2023-10-19T02:59:24;39.10;;;7.13;;
50429;SDS011;36359;41.556;-8.418;2023-10-19T03:01:54;32.78;;;5.97;;
50429;SDS011;36359;41.556;-8.418;2023-10-19T03:04:36;20.58;;;3.70;;
50429;SDS011;36359;41.556;-8.418;2023-10-19T03:07:03;21.60;;;5.03;;
50429;SDS011;36359;41.556;-8.418;2023-10-19T03:09:29;22.30;;;3.90;;
50429;SDS011;36359;41.556;-8.418;2023-10-19T03:11:56;19.33;;;3.75;;
50429;SDS011;36359;41.556;-8.418;2023-10-19T03:14:29;21.83;;;4.90;;
50429;SDS011;36359;41.556;-8.418;2023-10-19T03:16:57;22.63;;;4.40;;
50429;SDS011;36359;41.556;-8.418;2023-10-19T03:19:24;21.38;;;4.05;;
50429;SDS011;36359;41.556;-8.418;2023-10-19T03:21:50;19.63;;;4.10;;
50429;SDS011;36359;41.556;-8.418;2023-10-19T03:24:17;17.23;;;3.55;;
50429;SDS011;36359;41.556;-8.418;2023-10-19T03:27:06;16.42;;;3.38;;
50429;SDS011;36359;41.556;-8.418;2023-10-19T03:29:49;19.65;;;3.65;;
50429;SDS011;36359;41.556;-8.418;2023-10-19T03:32:21;19.88;;;4.03;;
50429;SDS011;36359;41.556;-8.418;2023-10-19T03:34:57;23.35;;;4.07;;
50429;SDS011;36359;41.556;-8.418;2023-10-19T03:37:26;18.60;;;3.72;;
50429;SDS011;36359;41.556;-8.418;2023-10-19T03:39:56;17.10;;;3.58;;
50429;SDS011;36359;41.556;-8.418;2023-10-19T03:42:25;21.80;;;4.30;;
50429;SDS011;36359;41.556;-8.418;2023-10-19T03:44:53;18.73;;;3.85;;
50429;SDS011;36359;41.556;-8.418;2023-10-19T03:47:19;18.75;;;3.42;;
50429;SDS011;36359;41.556;-8.418;2023-10-19T03:49:46;15.35;;;3.42;;
50429;SDS011;36359;41.556;-8.418;2023-10-19T03:52:13;15.98;;;3.28;;
50429;SDS011;36359;41.556;-8.418;2023-10-19T03:54:40;17.40;;;3.25;;
50429;SDS011;36359;41.556;-8.418;2023-10-19T03:57:06;13.65;;;2.95;;
50429;SDS011;36359;41.556;-8.418;2023-10-19T04:02:09;15.50;;;2.85;;
50429;SDS011;36359;41.556;-8.418;2023-10-19T04:04:36;15.57;;;3.00;;
50429;SDS011;36359;41.556;-8.418;2023-10-19T04:07:04;14.90;;;3.38;;
50429;SDS011;36359;41.556;-8.418;2023-10-19T04:09:36;14.82;;;2.90;;
50429;SDS011;36359;41.556;-8.418;2023-10-19T04:12:22;15.50;;;3.25;;
50429;SDS011;36359;41.556;-8.418;2023-10-19T04:14:48;14.88;;;2.83;;
50429;SDS011;36359;41.556;-8.418;2023-10-19T04:17:14;17.10;;;3.03;;
50429;SDS011;36359;41.556;-8.418;2023-10-19T04:19:41;8.50;;;1.88;;
50429;SDS011;36359;41.556;-8.418;2023-10-19T04:22:07;7.38;;;1.40;;
50429;SDS011;36359;41.556;-8.418;2023-10-19T04:24:36;10.43;;;2.38;;
50429;SDS011;36359;41.556;-8.418;2023-10-19T04:27:02;5.28;;;0.90;;
50429;SDS011;36359;41.556;-8.418;2023-10-19T04:29:28;5.55;;;1.45;;
50429;SDS011;36359;41.556;-8.418;2023-10-19T04:31:54;6.43;;;1.20;;
50429;SDS011;36359;41.556;-8.418;2023-10-19T04:34:20;8.95;;;1.65;;
50429;SDS011;36359;41.556;-8.418;2023-10-19T04:36:47;10.82;;;2.50;;
50429;SDS011;36359;41.556;-8.418;2023-10-19T04:39:13;11.85;;;2.53;;
50429;SDS011;36359;41.556;-8.418;2023-10-19T04:41:40;6.95;;;2.08;;
50429;SDS011;36359;41.556;-8.418;2023-10-19T04:44:06;7.55;;;1.65;;
50429;SDS011;36359;41.556;-8.418;2023-10-19T04:46:36;9.93;;;1.92;;
50429;SDS011;36359;41.556;-8.418;2023-10-19T04:49:02;11.63;;;2.53;;
50429;SDS011;36359;41.556;-8.418;2023-10-19T04:51:31;7.00;;;1.65;;
50429;SDS011;36359;41.556;-8.418;2023-10-19T04:53:57;9.48;;;1.73;;
50429;SDS011;36359;41.556;-8.418;2023-10-19T04:56:22;8.63;;;1.98;;
50429;SDS011;36359;41.556;-8.418;2023-10-19T04:58:48;7.88;;;1.67;;
50429;SDS011;36359;41.556;-8.418;2023-10-19T05:01:14;14.15;;;3.15;;
50429;SDS011;36359;41.556;-8.418;2023-10-19T05:03:40;14.65;;;2.50;;
50429;SDS011;36359;41.556;-8.418;2023-10-19T05:06:06;13.45;;;2.97;;
50429;SDS011;36359;41.556;-8.418;2023-10-19T05:08:33;12.98;;;2.33;;
50429;SDS011;36359;41.556;-8.418;2023-10-19T05:10:58;12.60;;;2.70;;
50429;SDS011;36359;41.556;-8.418;2023-10-19T05:13:27;16.08;;;2.80;;
50429;SDS011;36359;41.556;-8.418;2023-10-19T05:15:53;13.60;;;2.63;;
50429;SDS011;36359;41.556;-8.418;2023-10-19T05:18:21;15.23;;;2.97;;
50429;SDS011;36359;41.556;-8.418;2023-10-19T05:20:50;13.27;;;2.38;;
50429;SDS011;36359;41.556;-8.418;2023-10-19T05:23:23;16.50;;;2.72;;
50429;SDS011;36359;41.556;-8.418;2023-10-19T05:25:50;13.40;;;2.38;;
50429;SDS011;36359;41.556;-8.418;2023-10-19T05:28:18;13.43;;;3.40;;
50429;SDS011;36359;41.556;-8.418;2023-10-19T05:30:47;15.52;;;2.78;;
50429;SDS011;36359;41.556;-8.418;2023-10-19T05:33:14;14.25;;;2.53;;
50429;SDS011;36359;41.556;-8.418;2023-10-19T05:35:40;12.35;;;3.03;;
50429;SDS011;36359;41.556;-8.418;2023-10-19T05:38:07;9.68;;;2.10;;
50429;SDS011;36359;41.556;-8.418;2023-10-19T05:40:33;15.10;;;3.28;;
50429;SDS011;36359;41.556;-8.418;2023-10-19T05:42:59;13.30;;;2.65;;
50429;SDS011;36359;41.556;-8.418;2023-10-19T05:45:27;14.13;;;2.88;;
50429;SDS011;36359;41.556;-8.418;2023-10-19T05:47:55;13.35;;;2.60;;
50429;SDS011;36359;41.556;-8.418;2023-10-19T05:50:22;11.18;;;3.10;;
50429;SDS011;36359;41.556;-8.418;2023-10-19T05:52:49;12.45;;;2.63;;
50429;SDS011;36359;41.556;-8.418;2023-10-19T05:55:15;15.52;;;2.97;;
50429;SDS011;36359;41.556;-8.418;2023-10-19T05:57:41;16.58;;;3.70;;
50429;SDS011;36359;41.556;-8.418;2023-10-19T06:00:08;11.77;;;2.50;;
50429;SDS011;36359;41.556;-8.418;2023-10-19T06:02:44;14.90;;;2.40;;
50429;SDS011;36359;41.556;-8.418;2023-10-19T06:05:14;14.70;;;2.92;;
50429;SDS011;36359;41.556;-8.418;2023-10-19T06:07:47;10.75;;;2.58;;
50429;SDS011;36359;41.556;-8.418;2023-10-19T06:10:15;15.25;;;3.08;;
50429;SDS011;36359;41.556;-8.418;2023-10-19T06:12:43;15.02;;;3.30;;
50429;SDS011;36359;41.556;-8.418;2023-10-19T06:15:11;14.85;;;3.78;;
50429;SDS011;36359;41.556;-8.418;2023-10-19T06:17:38;13.48;;;2.92;;
50429;SDS011;36359;41.556;-8.418;2023-10-19T06:20:08;11.25;;;2.55;;
50429;SDS011;36359;41.556;-8.418;2023-10-19T06:22:51;10.82;;;2.20;;
50429;SDS011;36359;41.556;-8.418;2023-10-19T06:25:18;12.43;;;2.65;;
50429;SDS011;36359;41.556;-8.418;2023-10-19T06:27:45;10.43;;;2.25;;
50429;SDS011;36359;41.556;-8.418;2023-10-19T06:30:12;9.77;;;2.90;;
50429;SDS011;36359;41.556;-8.418;2023-10-19T06:32:44;8.85;;;2.55;;
50429;SDS011;36359;41.556;-8.418;2023-10-19T06:35:11;7.90;;;1.80;;
50429;SDS011;36359;41.556;-8.418;2023-10-19T06:37:36;7.82;;;1.67;;
50429;SDS011;36359;41.556;-8.418;2023-10-19T06:40:02;9.63;;;2.08;;
50429;SDS011;36359;41.556;-8.418;2023-10-19T06:42:28;10.43;;;1.88;;
50429;SDS011;36359;41.556;-8.418;2023-10-19T06:44:56;6.40;;;1.67;;
50429;SDS011;36359;41.556;-8.418;2023-10-19T06:47:22;6.00;;;1.50;;
50429;SDS011;36359;41.556;-8.418;2023-10-19T06:49:48;7.22;;;1.92;;
50429;SDS011;36359;41.556;-8.418;2023-10-19T06:52:15;9.15;;;1.35;;
50429;SDS011;36359;41.556;-8.418;2023-10-19T06:54:41;7.03;;;1.73;;
50429;SDS011;36359;41.556;-8.418;2023-10-19T06:57:07;8.98;;;1.60;;
50429;SDS011;36359;41.556;-8.418;2023-10-19T06:59:34;8.15;;;1.80;;
50429;SDS011;36359;41.556;-8.418;2023-10-19T07:02:01;8.45;;;1.98;;
50429;SDS011;36359;41.556;-8.418;2023-10-19T07:04:27;7.93;;;1.58;;
50429;SDS011;36359;41.556;-8.418;2023-10-19T07:06:55;8.02;;;1.50;;
50429;SDS011;36359;41.556;-8.418;2023-10-19T07:09:21;8.98;;;1.70;;
50429;SDS011;36359;41.556;-8.418;2023-10-19T07:11:49;8.98;;;2.00;;
50429;SDS011;36359;41.556;-8.418;2023-10-19T07:14:20;8.68;;;2.20;;
50429;SDS011;36359;41.556;-8.418;2023-10-19T07:16:49;10.55;;;2.00;;
50429;SDS011;36359;41.556;-8.418;2023-10-19T07:19:17;12.98;;;2.50;;
50429;SDS011;36359;41.556;-8.418;2023-10-19T07:21:43;15.27;;;4.85;;
50429;SDS011;36359;41.556;-8.418;2023-10-19T07:24:14;33.95;;;18.33;;
50429;SDS011;36359;41.556;-8.418;2023-10-19T07:26:40;11.00;;;5.75;;
50429;SDS011;36359;41.556;-8.418;2023-10-19T07:29:19;11.95;;;4.65;;
50429;SDS011;36359;41.556;-8.418;2023-10-19T07:31:45;45.33;;;30.05;;
50429;SDS011;36359;41.556;-8.418;2023-10-19T07:34:11;22.92;;;15.82;;
50429;SDS011;36359;41.556;-8.418;2023-10-19T07:36:41;10.27;;;3.95;;
50429;SDS011;36359;41.556;-8.418;2023-10-19T07:39:08;16.08;;;3.63;;
50429;SDS011;36359;41.556;-8.418;2023-10-19T07:41:40;9.38;;;2.25;;
50429;SDS011;36359;41.556;-8.418;2023-10-19T07:44:06;9.52;;;2.22;;
50429;SDS011;36359;41.556;-8.418;2023-10-19T07:46:31;4.65;;;0.95;;
50429;SDS011;36359;41.556;-8.418;2023-10-19T07:48:57;3.55;;;0.57;;
50429;SDS011;36359;41.556;-8.418;2023-10-19T07:53:56;3.38;;;0.65;;
50429;SDS011;36359;41.556;-8.418;2023-10-19T07:56:22;4.22;;;0.90;;
50429;SDS011;36359;41.556;-8.418;2023-10-19T07:58:49;4.80;;;2.00;;
50429;SDS011;36359;41.556;-8.418;2023-10-19T08:01:15;3.83;;;0.98;;
50429;SDS011;36359;41.556;-8.418;2023-10-19T08:03:41;3.72;;;0.47;;
50429;SDS011;36359;41.556;-8.418;2023-10-19T08:06:06;5.85;;;1.10;;
50429;SDS011;36359;41.556;-8.418;2023-10-19T08:08:32;3.35;;;0.50;;
50429;SDS011;36359;41.556;-8.418;2023-10-19T08:11:01;3.83;;;0.70;;
50429;SDS011;36359;41.556;-8.418;2023-10-19T08:13:27;6.22;;;1.05;;
50429;SDS011;36359;41.556;-8.418;2023-10-19T08:15:53;6.53;;;1.80;;
50429;SDS011;36359;41.556;-8.418;2023-10-19T08:18:27;4.75;;;1.10;;
50429;SDS011;36359;41.556;-8.418;2023-10-19T08:20:54;4.68;;;0.50;;
50429;SDS011;36359;41.556;-8.418;2023-10-19T08:23:20;4.75;;;0.90;;
50429;SDS011;36359;41.556;-8.418;2023-10-19T08:25:53;4.88;;;1.05;;
50429;SDS011;36359;41.556;-8.418;2023-10-19T08:28:20;6.55;;;1.10;;
50429;SDS011;36359;41.556;-8.418;2023-10-19T08:30:47;6.22;;;1.80;;
50429;SDS011;36359;41.556;-8.418;2023-10-19T08:33:22;2.28;;;0.68;;
50429;SDS011;36359;41.556;-8.418;2023-10-19T08:35:51;13.43;;;6.50;;
50429;SDS011;36359;41.556;-8.418;2023-10-19T08:38:19;6.80;;;2.50;;
50429;SDS011;36359;41.556;-8.418;2023-10-19T08:40:45;7.50;;;2.08;;
50429;SDS011;36359;41.556;-8.418;2023-10-19T08:43:14;3.33;;;1.15;;
50429;SDS011;36359;41.556;-8.418;2023-10-19T08:45:43;3.97;;;0.88;;
50429;SDS011;36359;41.556;-8.418;2023-10-19T08:48:09;3.10;;;1.17;;
50429;SDS011;36359;41.556;-8.418;2023-10-19T08:50:36;6.03;;;2.28;;
50429;SDS011;36359;41.556;-8.418;2023-10-19T08:53:06;7.05;;;2.00;;
50429;SDS011;36359;41.556;-8.418;2023-10-19T08:55:34;3.65;;;1.20;;
50429;SDS011;36359;41.556;-8.418;2023-10-19T08:58:00;2.70;;;1.05;;
50429;SDS011;36359;41.556;-8.418;2023-10-19T09:00:26;4.40;;;1.45;;
50429;SDS011;36359;41.556;-8.418;2023-10-19T09:02:53;5.90;;;1.55;;
50429;SDS011;36359;41.556;-8.418;2023-10-19T09:05:19;4.00;;;1.30;;
50429;SDS011;36359;41.556;-8.418;2023-10-19T09:07:50;6.57;;;1.50;;
50429;SDS011;36359;41.556;-8.418;2023-10-19T09:10:20;5.78;;;1.10;;
50429;SDS011;36359;41.556;-8.418;2023-10-19T09:13:00;7.35;;;1.77;;
50429;SDS011;36359;41.556;-8.418;2023-10-19T09:15:33;6.47;;;1.33;;
50429;SDS011;36359;41.556;-8.418;2023-10-19T09:18:16;4.00;;;1.23;;
50429;SDS011;36359;41.556;-8.418;2023-10-19T09:20:43;6.40;;;1.42;;
50429;SDS011;36359;41.556;-8.418;2023-10-19T09:23:21;4.43;;;1.33;;
50429;SDS011;36359;41.556;-8.418;2023-10-19T09:25:49;6.82;;;1.52;;
50429;SDS011;36359;41.556;-8.418;2023-10-19T09:28:18;4.38;;;1.67;;
50429;SDS011;36359;41.556;-8.418;2023-10-19T09:30:45;7.90;;;1.60;;
50429;SDS011;36359;41.556;-8.418;2023-10-19T09:33:13;6.38;;;1.52;;
50429;SDS011;36359;41.556;-8.418;2023-10-19T09:35:40;7.18;;;1.95;;
50429;SDS011;36359;41.556;-8.418;2023-10-19T09:38:08;7.20;;;1.42;;
50429;SDS011;36359;41.556;-8.418;2023-10-19T09:40:34;6.13;;;1.70;;
50429;SDS011;36359;41.556;-8.418;2023-10-19T09:43:04;4.47;;;1.40;;
50429;SDS011;36359;41.556;-8.418;2023-10-19T09:45:32;5.68;;;1.55;;
50429;SDS011;36359;41.556;-8.418;2023-10-19T09:48:05;7.30;;;1.40;;
50429;SDS011;36359;41.556;-8.418;2023-10-19T09:50:33;6.82;;;1.92;;
50429;SDS011;36359;41.556;-8.418;2023-10-19T09:53:00;5.38;;;1.40;;
50429;SDS011;36359;41.556;-8.418;2023-10-19T09:55:29;8.63;;;1.92;;
50429;SDS011;36359;41.556;-8.418;2023-10-19T09:58:02;6.30;;;1.60;;
50429;SDS011;36359;41.556;-8.418;2023-10-19T10:00:44;7.93;;;1.52;;
50429;SDS011;36359;41.556;-8.418;2023-10-19T10:06:14;9.95;;;1.65;;
50429;SDS011;36359;41.556;-8.418;2023-10-19T10:08:42;12.15;;;2.13;;
50429;SDS011;36359;41.556;-8.418;2023-10-19T10:11:18;7.68;;;1.15;;
50429;SDS011;36359;41.556;-8.418;2023-10-19T10:13:45;5.45;;;1.50;;
50429;SDS011;36359;41.556;-8.418;2023-10-19T10:16:14;11.60;;;1.88;;
50429;SDS011;36359;41.556;-8.418;2023-10-19T10:18:40;11.23;;;2.08;;
50429;SDS011;36359;41.556;-8.418;2023-10-19T10:21:21;7.32;;;2.42;;
50429;SDS011;36359;41.556;-8.418;2023-10-19T10:23:52;9.85;;;2.28;;
50429;SDS011;36359;41.556;-8.418;2023-10-19T10:26:31;8.38;;;1.55;;
50429;SDS011;36359;41.556;-8.418;2023-10-19T10:29:24;10.82;;;1.67;;
50429;SDS011;36359;41.556;-8.418;2023-10-19T10:31:50;9.82;;;1.50;;
50429;SDS011;36359;41.556;-8.418;2023-10-19T10:37:08;8.82;;;1.90;;
50429;SDS011;36359;41.556;-8.418;2023-10-19T10:39:39;9.30;;;1.65;;
50429;SDS011;36359;41.556;-8.418;2023-10-19T10:42:10;6.57;;;1.83;;
50429;SDS011;36359;41.556;-8.418;2023-10-19T10:44:43;10.60;;;2.20;;
50429;SDS011;36359;41.556;-8.418;2023-10-19T10:47:20;13.20;;;2.42;;
50429;SDS011;36359;41.556;-8.418;2023-10-19T10:49:48;9.88;;;1.73;;
50429;SDS011;36359;41.556;-8.418;2023-10-19T10:52:27;8.63;;;1.70;;
50429;SDS011;36359;41.556;-8.418;2023-10-19T10:55:07;7.10;;;2.05;;
50429;SDS011;36359;41.556;-8.418;2023-10-19T10:57:36;11.20;;;2.13;;
50429;SDS011;36359;41.556;-8.418;2023-10-19T11:02:41;7.78;;;2.20;;
50429;SDS011;36359;41.556;-8.418;2023-10-19T11:05:15;9.23;;;1.70;;
50429;SDS011;36359;41.556;-8.418;2023-10-19T11:08:02;8.30;;;1.73;;
50429;SDS011;36359;41.556;-8.418;2023-10-19T11:10:29;7.53;;;1.95;;
50429;SDS011;36359;41.556;-8.418;2023-10-19T11:13:01;7.95;;;1.50;;
50429;SDS011;36359;41.556;-8.418;2023-10-19T11:15:31;12.27;;;1.83;;
50429;SDS011;36359;41.556;-8.418;2023-10-19T11:18:00;13.35;;;1.80;;
50429;SDS011;36359;41.556;-8.418;2023-10-19T11:20:27;12.32;;;2.30;;
50429;SDS011;36359;41.556;-8.418;2023-10-19T11:22:56;9.70;;;2.25;;
50429;SDS011;36359;41.556;-8.418;2023-10-19T11:25:29;8.68;;;1.67;;
50429;SDS011;36359;41.556;-8.418;2023-10-19T11:27:56;8.00;;;1.35;;
50429;SDS011;36359;41.556;-8.418;2023-10-19T11:30:27;13.30;;;2.33;;
50429;SDS011;36359;41.556;-8.418;2023-10-19T11:32:54;10.63;;;1.98;;
50429;SDS011;36359;41.556;-8.418;2023-10-19T11:35:25;7.28;;;1.73;;
50429;SDS011;36359;41.556;-8.418;2023-10-19T11:37:59;8.85;;;1.27;;
50429;SDS011;36359;41.556;-8.418;2023-10-19T11:40:28;8.20;;;1.52;;
50429;SDS011;36359;41.556;-8.418;2023-10-19T11:42:57;8.85;;;1.50;;
50429;SDS011;36359;41.556;-8.418;2023-10-19T11:45:25;6.30;;;1.23;;
50429;SDS011;36359;41.556;-8.418;2023-10-19T11:47:52;10.85;;;3.72;;
50429;SDS011;36359;41.556;-8.418;2023-10-19T11:50:18;8.60;;;3.40;;
50429;SDS011;36359;41.556;-8.418;2023-10-19T11:52:45;10.07;;;2.95;;
50429;SDS011;36359;41.556;-8.418;2023-10-19T11:55:12;8.63;;;3.00;;
50429;SDS011;36359;41.556;-8.418;2023-10-19T11:57:44;5.78;;;2.08;;
50429;SDS011;36359;41.556;-8.418;2023-10-19T12:00:13;12.00;;;5.30;;
50429;SDS011;36359;41.556;-8.418;2023-10-19T12:02:45;5.95;;;2.63;;
50429;SDS011;36359;41.556;-8.418;2023-10-19T12:05:11;9.43;;;2.90;;
50429;SDS011;36359;41.556;-8.418;2023-10-19T12:07:37;10.40;;;4.22;;
50429;SDS011;36359;41.556;-8.418;2023-10-19T12:10:07;9.15;;;3.03;;
50429;SDS011;36359;41.556;-8.418;2023-10-19T12:15:00;6.97;;;1.30;;
50429;SDS011;36359;41.556;-8.418;2023-10-19T12:17:28;12.65;;;1.90;;
50429;SDS011;36359;41.556;-8.418;2023-10-19T12:19:55;13.05;;;3.58;;
50429;SDS011;36359;41.556;-8.418;2023-10-19T12:22:22;12.45;;;4.22;;
50429;SDS011;36359;41.556;-8.418;2023-10-19T12:24:49;9.70;;;2.45;;
50429;SDS011;36359;41.556;-8.418;2023-10-19T12:27:16;8.55;;;2.20;;
50429;SDS011;36359;41.556;-8.418;2023-10-19T12:29:43;10.40;;;1.90;;
50429;SDS011;36359;41.556;-8.418;2023-10-19T12:32:09;10.55;;;2.58;;
50429;SDS011;36359;41.556;-8.418;2023-10-19T12:34:40;8.05;;;2.10;;
50429;SDS011;36359;41.556;-8.418;2023-10-19T12:37:07;11.70;;;3.10;;
50429;SDS011;36359;41.556;-8.418;2023-10-19T12:39:35;8.38;;;1.85;;
50429;SDS011;36359;41.556;-8.418;2023-10-19T12:42:03;8.10;;;2.88;;
50429;SDS011;36359;41.556;-8.418;2023-10-19T12:44:29;8.10;;;2.00;;
50429;SDS011;36359;41.556;-8.418;2023-10-19T12:46:57;10.77;;;3.40;;
50429;SDS011;36359;41.556;-8.418;2023-10-19T12:49:24;9.07;;;2.10;;
50429;SDS011;36359;41.556;-8.418;2023-10-19T12:51:51;8.98;;;1.20;;
50429;SDS011;36359;41.556;-8.418;2023-10-19T12:54:17;7.25;;;1.90;;
50429;SDS011;36359;41.556;-8.418;2023-10-19T12:56:43;8.90;;;2.53;;
50429;SDS011;36359;41.556;-8.418;2023-10-19T12:59:10;10.57;;;1.65;;
50429;SDS011;36359;41.556;-8.418;2023-10-19T13:01:36;8.15;;;1.23;;
50429;SDS011;36359;41.556;-8.418;2023-10-19T13:04:02;9.48;;;1.92;;
50429;SDS011;36359;41.556;-8.418;2023-10-19T13:06:48;7.43;;;1.90;;
50429;SDS011;36359;41.556;-8.418;2023-10-19T13:09:14;12.63;;;1.55;;
50429;SDS011;36359;41.556;-8.418;2023-10-19T13:11:49;8.48;;;1.42;;
50429;SDS011;36359;41.556;-8.418;2023-10-19T13:14:18;7.00;;;1.30;;
50429;SDS011;36359;41.556;-8.418;2023-10-19T13:16:44;6.13;;;1.45;;
50429;SDS011;36359;41.556;-8.418;2023-10-19T13:19:18;9.50;;;1.77;;
50429;SDS011;36359;41.556;-8.418;2023-10-19T13:21:49;10.07;;;1.70;;
50429;SDS011;36359;41.556;-8.418;2023-10-19T13:24:18;9.43;;;1.35;;
50429;SDS011;36359;41.556;-8.418;2023-10-19T13:26:47;5.93;;;1.15;;
50429;SDS011;36359;41.556;-8.418;2023-10-19T13:29:13;8.07;;;1.08;;
50429;SDS011;36359;41.556;-8.418;2023-10-19T13:31:42;12.88;;;2.72;;
50429;SDS011;36359;41.556;-8.418;2023-10-19T13:34:14;31.63;;;9.10;;
50429;SDS011;36359;41.556;-8.418;2023-10-19T13:36:41;11.18;;;3.15;;
50429;SDS011;36359;41.556;-8.418;2023-10-19T13:39:08;40.17;;;15.55;;
50429;SDS011;36359;41.556;-8.418;2023-10-19T13:41:38;17.92;;;5.95;;
50429;SDS011;36359;41.556;-8.418;2023-10-19T13:44:04;21.23;;;5.18;;
50429;SDS011;36359;41.556;-8.418;2023-10-19T13:46:30;24.55;;;4.05;;
50429;SDS011;36359;41.556;-8.418;2023-10-19T13:48:56;20.48;;;4.85;;
50429;SDS011;36359;41.556;-8.418;2023-10-19T13:51:22;26.92;;;6.70;;
50429;SDS011;36359;41.556;-8.418;2023-10-19T13:56:13;21.00;;;3.88;;
50429;SDS011;36359;41.556;-8.418;2023-10-19T13:58:42;19.85;;;4.68;;
50429;SDS011;36359;41.556;-8.418;2023-10-19T14:01:08;25.15;;;7.60;;
50429;SDS011;36359;41.556;-8.418;2023-10-19T14:03:35;31.35;;;7.85;;
50429;SDS011;36359;41.556;-8.418;2023-10-19T14:06:02;38.40;;;10.45;;
50429;SDS011;36359;41.556;-8.418;2023-10-19T14:08:28;39.30;;;10.68;;
50429;SDS011;36359;41.556;-8.418;2023-10-19T14:11:02;15.52;;;4.47;;
50429;SDS011;36359;41.556;-8.418;2023-10-19T14:13:29;35.90;;;11.65;;
50429;SDS011;36359;41.556;-8.418;2023-10-19T14:15:55;33.53;;;13.15;;
50429;SDS011;36359;41.556;-8.418;2023-10-19T14:18:21;29.65;;;12.18;;
50429;SDS011;36359;41.556;-8.418;2023-10-19T14:20:47;28.95;;;7.75;;
50429;SDS011;36359;41.556;-8.418;2023-10-19T14:23:13;29.27;;;7.05;;
50429;SDS011;36359;41.556;-8.418;2023-10-19T14:25:39;28.20;;;6.18;;
50429;SDS011;36359;41.556;-8.418;2023-10-19T14:28:07;29.23;;;12.48;;
50429;SDS011;36359;41.556;-8.418;2023-10-19T14:30:33;29.70;;;12.35;;
50429;SDS011;36359;41.556;-8.418;2023-10-19T14:32:59;22.40;;;7.90;;
50429;SDS011;36359;41.556;-8.418;2023-10-19T14:35:25;23.38;;;8.82;;
50429;SDS011;36359;41.556;-8.418;2023-10-19T14:37:52;28.67;;;8.68;;
50429;SDS011;36359;41.556;-8.418;2023-10-19T14:40:22;24.00;;;6.88;;
50429;SDS011;36359;41.556;-8.418;2023-10-19T14:42:50;28.58;;;7.78;;
50429;SDS011;36359;41.556;-8.418;2023-10-19T14:45:21;30.42;;;8.85;;
50429;SDS011;36359;41.556;-8.418;2023-10-19T14:47:51;23.40;;;6.72;;
50429;SDS011;36359;41.556;-8.418;2023-10-19T14:50:18;20.70;;;6.20;;
50429;SDS011;36359;41.556;-8.418;2023-10-19T14:52:45;25.88;;;5.15;;
50429;SDS011;36359;41.556;-8.418;2023-10-19T14:55:12;27.90;;;4.97;;
50429;SDS011;36359;41.556;-8.418;2023-10-19T14:57:40;22.75;;;4.88;;
50429;SDS011;36359;41.556;-8.418;2023-10-19T15:00:11;24.95;;;6.30;;
50429;SDS011;36359;41.556;-8.418;2023-10-19T15:02:54;21.73;;;6.20;;